Time;durP1;ratioP1;P1;durP2;ratioP2;P2;SDS_P1;SDS_P2;PMS_P1;PMS_P2;Temp;Humidity;BMP_temperature;BMP_pressure;BME280_temperature;BME280_humidity;BME280_pressure;Samples;Min_cycle;Max_cycle;Signal;HPM_P1;HPM_P2
2023/12/12 00:00:59;;;;;;;6.45;4.30;;;;;;;;;;4959170;28;20077;-60
2023/12/12 00:03:53;;;;;;;7.43;4.78;;;;;;;;;;4959827;28;20047;-60
2023/12/12 00:06:47;;;;;;;6.63;4.25;;;;;;;;;;4959127;28;20120;-60
2023/12/12 00:09:34;;;;;;;8.38;4.70;;;;;;;;;;4961729;28;20425;-61
2023/12/12 00:12:28;;;;;;;8.23;5.15;;;;;;;;;;4964220;28;20109;-60
2023/12/12 00:15:15;;;;;;;8.40;4.80;;;;;;;;;;4959083;28;20063;-61
2023/12/12 00:18:09;;;;;;;7.35;4.72;;;;;;;;;;4958751;28;20305;-49
2023/12/12 00:20:36;;;;;;;6.53;4.50;;;;;;;;;;4959153;28;20058;-63
2023/12/12 00:23:04;;;;;;;7.75;4.97;;;;;;;;;;4960032;28;20054;-53
2023/12/12 00:25:51;;;;;;;8.32;4.70;;;;;;;;;;4965166;28;20248;-54
2023/12/12 00:28:25;;;;;;;7.47;4.65;;;;;;;;;;4975305;28;20058;-53
2023/12/12 00:31:00;;;;;;;6.07;4.55;;;;;;;;;;4971035;28;20082;-54
2023/12/12 00:33:28;;;;;;;7.38;4.40;;;;;;;;;;4973755;28;20050;-53
2023/12/12 00:35:55;;;;;;;6.97;4.50;;;;;;;;;;4979463;28;20058;-60
2023/12/12 00:38:30;;;;;;;7.90;5.05;;;;;;;;;;4975953;28;20509;-59
2023/12/12 00:40:58;;;;;;;7.10;4.60;;;;;;;;;;4975413;28;20423;-59
2023/12/12 00:43:32;;;;;;;6.07;4.40;;;;;;;;;;4978240;28;20054;-58
2023/12/12 00:45:59;;;;;;;;;;;;;;;;;;4975300;28;20142;-52
2023/12/12 00:48:26;;;;;;;5.68;3.85;;;;;;;;;;4977335;28;19948;-59
2023/12/12 00:51:00;;;;;;;6.00;4.30;;;;;;;;;;5003404;28;20522;-62
2023/12/12 00:53:27;;;;;;;6.90;4.05;;;;;;;;;;4974246;28;20407;-63
2023/12/12 00:56:02;;;;;;;6.18;4.20;;;;;;;;;;4973049;28;20510;-62
2023/12/12 00:58:29;;;;;;;5.95;3.92;;;;;;;;;;4975505;28;20054;-63
2023/12/12 01:00:56;;;;;;;5.70;3.97;;;;;;;;;;4971452;28;20050;-62
2023/12/12 01:03:30;;;;;;;6.28;4.03;;;;;;;;;;4976034;28;20150;-63
2023/12/12 01:05:57;;;;;;;5.88;4.18;;;;;;;;;;4975134;28;20050;-62
2023/12/12 01:08:25;;;;;;;6.95;3.95;;;;;;;;;;4977295;28;20471;-63
2023/12/12 01:10:59;;;;;;;4.65;3.30;;;;;;;;;;4977438;28;20133;-63
2023/12/12 01:13:26;;;;;;;;;;;;;;;;;;4976323;28;20810;-63
2023/12/12 01:15:53;;;;;;;5.55;3.40;;;;;;;;;;4972284;28;19932;-52
2023/12/12 01:18:30;;;;;;;5.47;3.13;;;;;;;;;;4985249;28;20062;-60
2023/12/12 01:20:57;;;;;;;4.60;3.38;;;;;;;;;;4973507;28;20150;-60
2023/12/12 01:23:51;;;;;;;4.85;3.35;;;;;;;;;;4975027;28;20049;-61
2023/12/12 01:26:25;;;;;;;5.75;3.22;;;;;;;;;;4974250;28;20078;-60
2023/12/12 01:28:59;;;;;;;5.47;3.28;;;;;;;;;;5005575;28;20062;-60
2023/12/12 01:31:26;;;;;;;;;;;;;;;;;;4975402;28;20050;-61
2023/12/12 01:34:00;;;;;;;5.95;3.60;;;;;;;;;;4973432;28;19937;-63
2023/12/12 01:36:27;;;;;;;;;;;;;;;;;;4981621;28;20073;-63
2023/12/12 01:38:55;;;;;;;5.38;3.45;;;;;;;;;;4975143;28;19925;-63
2023/12/12 01:41:29;;;;;;;5.65;3.65;;;;;;;;;;4978047;28;20108;-62
2023/12/12 01:43:56;;;;;;;6.05;3.97;;;;;;;;;;4973240;28;20077;-63
2023/12/12 01:46:31;;;;;;;6.35;3.95;;;;;;;;;;4973012;28;20474;-60
2023/12/12 01:48:59;;;;;;;5.60;3.72;;;;;;;;;;4979374;28;20465;-59
2023/12/12 01:51:26;;;;;;;5.75;4.03;;;;;;;;;;4978296;28;20146;-60
2023/12/12 01:54:01;;;;;;;7.13;4.18;;;;;;;;;;4977268;28;20053;-59
2023/12/12 01:56:29;;;;;;;7.82;4.45;;;;;;;;;;4971083;28;21322;-59
2023/12/12 01:59:03;;;;;;;7.53;4.63;;;;;;;;;;4976274;28;20097;-59
2023/12/12 02:01:31;;;;;;;6.80;4.28;;;;;;;;;;4975236;28;20059;-59
2023/12/12 02:04:05;;;;;;;7.68;4.55;;;;;;;;;;4998455;28;20054;-59
2023/12/12 02:06:32;;;;;;;;;;;;;;;;;;4978121;28;20050;-60
2023/12/12 02:09:00;;;;;;;8.65;4.70;;;;;;;;;;4979903;28;19932;-59
2023/12/12 02:11:34;;;;;;;7.88;4.25;;;;;;;;;;4980221;28;20097;-60
2023/12/12 02:14:02;;;;;;;7.93;4.60;;;;;;;;;;4978126;28;20058;-53
2023/12/12 02:16:36;;;;;;;6.82;4.65;;;;;;;;;;4979197;28;20101;-52
2023/12/12 02:19:03;;;;;;;;;;;;;;;;;;4973638;28;20069;-55
2023/12/12 02:21:31;;;;;;;7.55;4.45;;;;;;;;;;4977230;28;19922;-54
2023/12/12 02:24:05;;;;;;;7.72;4.90;;;;;;;;;;4977929;28;20058;-54
2023/12/12 02:26:38;;;;;;;9.10;5.22;;;;;;;;;;4976805;28;20474;-53
2023/12/12 02:29:13;;;;;;;8.32;4.80;;;;;;;;;;4979042;28;20058;-54
2023/12/12 02:31:40;;;;;;;10.73;5.38;;;;;;;;;;4975542;28;20069;-59
2023/12/12 02:34:07;;;;;;;7.82;5.13;;;;;;;;;;4980227;28;20084;-59
2023/12/12 02:36:43;;;;;;;9.02;5.25;;;;;;;;;;4974847;28;20058;-60
2023/12/12 02:39:11;;;;;;;8.73;5.53;;;;;;;;;;4978144;28;20065;-60
2023/12/12 02:41:38;;;;;;;8.43;5.50;;;;;;;;;;4981405;28;20113;-59
2023/12/12 02:44:12;;;;;;;8.18;5.22;;;;;;;;;;4978765;28;20053;-62
2023/12/12 02:46:39;;;;;;;;;;;;;;;;;;4981790;28;20169;-63
2023/12/12 02:49:07;;;;;;;9.85;5.03;;;;;;;;;;4979626;28;20308;-64
2023/12/12 02:51:41;;;;;;;9.57;4.95;;;;;;;;;;4980294;28;20054;-62
2023/12/12 02:54:08;;;;;;;;;;;;;;;;;;4980960;28;20681;-63
2023/12/12 02:56:35;;;;;;;10.52;5.35;;;;;;;;;;4978303;28;20011;-63
2023/12/12 02:59:09;;;;;;;10.43;5.85;;;;;;;;;;4980662;28;20395;-56
2023/12/12 03:01:36;;;;;;;8.02;4.88;;;;;;;;;;4972650;28;20062;-57
2023/12/12 03:04:10;;;;;;;7.97;5.20;;;;;;;;;;4973332;28;20058;-56
2023/12/12 03:06:37;;;;;;;9.85;5.30;;;;;;;;;;4977209;28;20158;-56
2023/12/12 03:09:04;;;;;;;8.82;5.78;;;;;;;;;;4977592;28;20452;-60
2023/12/12 03:11:39;;;;;;;10.65;6.30;;;;;;;;;;4977270;28;20062;-60
2023/12/12 03:14:06;;;;;;;;;;;;;;;;;;4978717;28;20069;-60
2023/12/12 03:16:33;;;;;;;11.82;5.60;;;;;;;;;;4971877;28;19926;-59
2023/12/12 03:19:08;;;;;;;8.45;5.80;;;;;;;;;;4976642;28;20054;-58
2023/12/12 03:21:35;;;;;;;12.43;6.47;;;;;;;;;;4979460;28;20098;-60
2023/12/12 03:24:09;;;;;;;10.25;6.32;;;;;;;;;;4974328;28;20053;-59
2023/12/12 03:26:42;;;;;;;10.88;6.32;;;;;;;;;;4975972;28;20086;-52
2023/12/12 03:29:16;;;;;;;9.43;5.50;;;;;;;;;;4977700;28;20066;-51
2023/12/12 03:31:50;;;;;;;10.82;6.07;;;;;;;;;;4970601;28;20046;-54
2023/12/12 03:34:17;;;;;;;12.43;7.30;;;;;;;;;;4973300;28;20065;-55
2023/12/12 03:36:45;;;;;;;;;;;;;;;;;;4973701;28;20422;-60
2023/12/12 03:39:19;;;;;;;12.23;6.72;;;;;;;;;;4974257;28;20569;-62
2023/12/12 03:41:46;;;;;;;12.40;6.57;;;;;;;;;;4978807;28;20409;-64
2023/12/12 03:44:20;;;;;;;11.07;6.22;;;;;;;;;;4975275;28;20055;-63
2023/12/12 03:46:47;;;;;;;;;;;;;;;;;;4977242;28;20050;-63
2023/12/12 03:49:14;;;;;;;11.77;6.07;;;;;;;;;;5005046;28;19933;-63
2023/12/12 03:51:48;;;;;;;11.73;6.38;;;;;;;;;;4971493;28;20623;-63
2023/12/12 03:54:15;;;;;;;;;;;;;;;;;;4978260;28;20437;-63
2023/12/12 03:56:51;;;;;;;15.18;7.20;;;;;;;;;;4977953;28;19937;-63
2023/12/12 03:59:18;;;;;;;13.75;7.30;;;;;;;;;;4974534;28;20513;-61
2023/12/12 04:01:48;;;;;;;14.65;8.13;;;;;;;;;;4972653;28;20050;-62
2023/12/12 04:04:23;;;;;;;17.50;8.88;;;;;;;;;;4973978;28;20490;-64
2023/12/12 04:06:50;;;;;;;14.52;8.02;;;;;;;;;;4974236;28;20502;-58
2023/12/12 04:09:24;;;;;;;15.90;8.82;;;;;;;;;;4974897;28;20487;-57
2023/12/12 04:11:51;;;;;;;17.25;8.13;;;;;;;;;;4974318;28;20050;-55
2023/12/12 04:14:18;;;;;;;15.18;8.18;;;;;;;;;;4979164;28;20046;-56
2023/12/12 04:16:52;;;;;;;17.73;8.68;;;;;;;;;;4977031;28;20050;-56
2023/12/12 04:19:19;;;;;;;14.32;8.63;;;;;;;;;;4976149;28;20105;-60
2023/12/12 04:22:07;;;;;;;18.63;9.70;;;;;;;;;;4972280;28;20060;-57
2023/12/12 04:24:41;;;;;;;14.80;8.15;;;;;;;;;;4973735;28;20061;-65
2023/12/12 04:27:21;;;;;;;17.58;9.70;;;;;;;;;;4959241;28;20104;-63
2023/12/12 04:29:56;;;;;;;16.25;9.00;;;;;;;;;;4959730;28;20149;-63
2023/12/12 04:32:30;;;;;;;15.13;9.00;;;;;;;;;;4956656;28;20078;-63
2023/12/12 04:34:57;;;;;;;15.75;8.50;;;;;;;;;;4959230;28;20102;-59
2023/12/12 04:37:25;;;;;;;18.63;9.32;;;;;;;;;;4959397;28;20082;-62
2023/12/12 04:39:59;;;;;;;19.85;10.55;;;;;;;;;;4962870;28;20063;-64
2023/12/12 04:42:27;;;;;;;16.77;8.93;;;;;;;;;;4954062;28;20051;-62
2023/12/12 04:45:01;;;;;;;18.25;9.95;;;;;;;;;;4959386;28;20499;-64
2023/12/12 04:47:28;;;;;;;;;;;;;;;;;;4961679;28;20050;-65
2023/12/12 04:49:55;;;;;;;19.02;9.55;;;;;;;;;;4956255;28;19934;-64
2023/12/12 04:52:29;;;;;;;17.48;9.35;;;;;;;;;;4963452;28;20065;-73
2023/12/12 04:54:57;;;;;;;18.15;9.30;;;;;;;;;;4956511;28;20058;-73
2023/12/12 04:57:24;;;;;;;17.67;9.63;;;;;;;;;;4952566;28;20055;-73
2023/12/12 04:59:58;;;;;;;17.90;10.38;;;;;;;;;;4952526;28;20527;-73
2023/12/12 05:02:25;;;;;;;16.73;8.75;;;;;;;;;;4955990;28;20102;-61
2023/12/12 05:04:53;;;;;;;18.45;9.75;;;;;;;;;;4951477;28;20047;-55
2023/12/12 05:07:27;;;;;;;16.83;9.48;;;;;;;;;;4955153;28;20055;-63
2023/12/12 05:09:54;;;;;;;;;;;;;;;;;;4959950;28;20943;-63
2023/12/12 05:12:22;;;;;;;21.83;9.57;;;;;;;;;;4961314;28;19941;-63
2023/12/12 05:15:00;;;;;;;17.45;9.55;;;;;;;;;;4958500;28;20214;-65
2023/12/12 05:17:27;;;;;;;18.13;9.27;;;;;;;;;;4961596;28;20051;-65
2023/12/12 05:20:03;;;;;;;18.67;9.32;;;;;;;;;;4958112;28;20145;-65
2023/12/12 05:22:30;;;;;;;16.63;8.73;;;;;;;;;;4957710;28;20082;-61
2023/12/12 05:25:05;;;;;;;17.08;9.68;;;;;;;;;;4957721;28;20064;-61
2023/12/12 05:27:38;;;;;;;18.42;9.93;;;;;;;;;;4969752;28;20507;-61
2023/12/12 05:30:13;;;;;;;18.00;9.95;;;;;;;;;;4980523;28;20081;-61
2023/12/12 05:32:40;;;;;;;;;;;;;;;;;;4971697;28;20057;-64
2023/12/12 05:35:08;;;;;;;18.05;9.60;;;;;;;;;;4978291;28;19933;-74
2023/12/12 05:37:42;;;;;;;19.08;9.77;;;;;;;;;;4973762;28;20066;-73
2023/12/12 05:40:09;;;;;;;;;;;;;;;;;;4982217;28;20057;-74
2023/12/12 05:42:43;;;;;;;19.75;10.70;;;;;;;;;;4978769;28;19925;-73
2023/12/12 05:45:10;;;;;;;19.17;10.15;;;;;;;;;;4977298;28;20181;-73
2023/12/12 05:47:37;;;;;;;21.52;10.55;;;;;;;;;;4979124;28;20061;-74
2023/12/12 05:50:11;;;;;;;18.88;10.20;;;;;;;;;;4982095;28;20072;-60
2023/12/12 05:52:39;;;;;;;20.80;10.65;;;;;;;;;;4982852;28;20042;-61
2023/12/12 05:55:06;;;;;;;;;;;;;;;;;;4971171;28;20054;-57
2023/12/12 05:57:40;;;;;;;19.63;10.57;;;;;;;;;;4975960;28;19988;-58
2023/12/12 06:00:07;;;;;;;21.67;12.05;;;;;;;;;;4982447;28;20132;-49
2023/12/12 06:02:34;;;;;;;;;;;;;;;;;;4982712;28;20058;-63
2023/12/12 06:05:09;;;;;;;24.25;11.45;;;;;;;;;;4981280;28;19922;-63
2023/12/12 06:07:36;;;;;;;;;;;;;;;;;;4983493;28;20052;-62
2023/12/12 06:10:05;;;;;;;21.50;11.80;;;;;;;;;;4986814;28;20202;-63
2023/12/12 06:12:39;;;;;;;24.67;11.27;;;;;;;;;;4979085;28;20576;-62
2023/12/12 06:15:07;;;;;;;23.90;12.00;;;;;;;;;;4987212;28;20065;-62
2023/12/12 06:17:41;;;;;;;21.75;11.68;;;;;;;;;;4991375;28;20479;-63
2023/12/12 06:20:08;;;;;;;23.88;11.48;;;;;;;;;;4978928;28;20061;-62
2023/12/12 06:22:36;;;;;;;23.73;12.02;;;;;;;;;;4981923;28;20509;-63
2023/12/12 06:25:10;;;;;;;19.83;11.18;;;;;;;;;;4983328;28;20053;-63
2023/12/12 06:27:44;;;;;;;23.88;12.05;;;;;;;;;;4958674;28;20846;-53
2023/12/12 06:30:18;;;;;;;19.92;11.20;;;;;;;;;;4959459;28;20051;-59
2023/12/12 06:32:54;;;;;;;20.98;10.30;;;;;;;;;;4956670;28;20047;-59
2023/12/12 06:35:23;;;;;;;21.85;11.60;;;;;;;;;;4959795;28;20046;-59
2023/12/12 06:37:50;;;;;;;19.63;10.52;;;;;;;;;;4957477;28;20623;-59
2023/12/12 06:40:24;;;;;;;22.88;11.02;;;;;;;;;;4959952;28;20042;-58
2023/12/12 06:42:51;;;;;;;22.88;11.27;;;;;;;;;;4955726;28;20562;-60
2023/12/12 06:45:18;;;;;;;18.73;11.35;;;;;;;;;;4959351;28;20138;-59
2023/12/12 06:47:52;;;;;;;20.40;10.18;;;;;;;;;;4960627;28;20097;-55
2023/12/12 06:50:19;;;;;;;;;;;;;;;;;;4958420;28;20073;-54
2023/12/12 06:52:46;;;;;;;21.75;9.55;;;;;;;;;;4956156;28;19926;-50
2023/12/12 06:55:20;;;;;;;21.65;11.00;;;;;;;;;;4960719;28;20055;-56
2023/12/12 06:57:47;;;;;;;;;;;;;;;;;;4961322;28;20069;-57
2023/12/12 07:00:15;;;;;;;23.15;11.00;;;;;;;;;;4956990;28;19934;-59
2023/12/12 07:02:49;;;;;;;22.85;10.85;;;;;;;;;;4958434;28;20042;-59
2023/12/12 07:05:16;;;;;;;20.98;11.32;;;;;;;;;;4956642;28;20057;-59
2023/12/12 07:07:50;;;;;;;20.02;9.90;;;;;;;;;;4957154;28;20053;-61
2023/12/12 07:10:17;;;;;;;25.58;11.05;;;;;;;;;;4972565;28;20054;-61
2023/12/12 07:12:45;;;;;;;23.23;11.07;;;;;;;;;;4956121;28;20051;-59
2023/12/12 07:15:19;;;;;;;25.20;11.80;;;;;;;;;;4960911;28;20066;-71
2023/12/12 07:17:46;;;;;;;23.30;11.02;;;;;;;;;;4961116;28;20613;-71
2023/12/12 07:20:21;;;;;;;23.95;10.82;;;;;;;;;;4957859;28;20153;-73
2023/12/12 07:22:48;;;;;;;21.23;10.25;;;;;;;;;;4958423;28;20143;-74
2023/12/12 07:25:15;;;;;;;;;;;;;;;;;;4962496;28;20125;-72
2023/12/12 07:27:55;;;;;;;20.80;9.95;;;;;;;;;;4981461;28;19932;-63
2023/12/12 07:30:23;;;;;;;21.73;10.45;;;;;;;;;;4980663;28;20087;-64
2023/12/12 07:32:57;;;;;;;21.98;10.35;;;;;;;;;;4980889;28;20054;-63
2023/12/12 07:35:25;;;;;;;19.08;10.38;;;;;;;;;;5011157;28;20076;-62
2023/12/12 07:37:52;;;;;;;22.30;11.43;;;;;;;;;;4982321;28;20050;-63
2023/12/12 07:40:30;;;;;;;21.00;10.40;;;;;;;;;;4985514;28;20390;-63
2023/12/12 07:42:57;;;;;;;20.48;10.50;;;;;;;;;;4983204;28;20113;-60
2023/12/12 07:45:31;;;;;;;18.77;10.23;;;;;;;;;;4983531;28;20514;-59
2023/12/12 07:48:04;;;;;;;22.23;10.63;;;;;;;;;;4985660;28;20054;-59
2023/12/12 07:50:40;;;;;;;26.23;11.00;;;;;;;;;;5009452;28;20051;-59
2023/12/12 07:53:07;;;;;;;26.95;12.25;;;;;;;;;;4979756;28;20082;-55
2023/12/12 07:55:35;;;;;;;21.55;11.70;;;;;;;;;;5016582;28;20121;-63
2023/12/12 07:58:10;;;;;;;24.95;11.02;;;;;;;;;;4983658;28;20059;-60
2023/12/12 08:00:44;;;;;;;23.98;11.50;;;;;;;;;;4980415;28;20055;-59
2023/12/12 08:03:13;;;;;;;22.08;10.77;;;;;;;;;;4980385;28;20058;-60
2023/12/12 08:05:40;;;;;;;22.75;11.25;;;;;;;;;;4984833;28;20520;-59
2023/12/12 08:08:14;;;;;;;23.35;11.27;;;;;;;;;;4979703;28;20050;-60
2023/12/12 08:10:41;;;;;;;21.15;11.13;;;;;;;;;;4985365;28;20093;-60
2023/12/12 08:13:15;;;;;;;23.15;10.13;;;;;;;;;;4981256;28;20133;-71
2023/12/12 08:15:43;;;;;;;19.65;10.05;;;;;;;;;;4981945;28;20053;-71
2023/12/12 08:18:11;;;;;;;18.02;9.98;;;;;;;;;;4979444;28;20123;-72
2023/12/12 08:20:45;;;;;;;23.88;10.82;;;;;;;;;;4981352;28;20057;-71
2023/12/12 08:23:13;;;;;;;21.70;11.23;;;;;;;;;;4978969;28;20050;-63
2023/12/12 08:26:00;;;;;;;20.55;10.63;;;;;;;;;;4979319;28;20054;-63
2023/12/12 08:28:35;;;;;;;22.13;11.30;;;;;;;;;;4978814;28;20054;-63
2023/12/12 08:31:10;;;;;;;22.17;10.68;;;;;;;;;;4979238;28;20058;-63
2023/12/12 08:33:37;;;;;;;21.17;11.00;;;;;;;;;;4982340;28;20050;-62
2023/12/12 08:36:05;;;;;;;23.70;10.27;;;;;;;;;;4982941;28;20530;-63
2023/12/12 08:38:39;;;;;;;20.63;10.18;;;;;;;;;;4980840;28;20061;-62
2023/12/12 08:41:13;;;;;;;22.55;10.52;;;;;;;;;;4979456;28;20101;-63
2023/12/12 08:43:41;;;;;;;22.15;10.77;;;;;;;;;;4980810;28;20062;-64
2023/12/12 08:46:08;;;;;;;21.20;11.00;;;;;;;;;;4980199;28;20255;-63
2023/12/12 08:48:42;;;;;;;20.33;10.45;;;;;;;;;;4979907;28;20065;-63
2023/12/12 08:51:10;;;;;;;20.40;10.38;;;;;;;;;;4984860;28;20116;-63
2023/12/12 08:53:38;;;;;;;18.92;10.25;;;;;;;;;;4980539;28;20588;-59
2023/12/12 08:56:14;;;;;;;18.92;9.93;;;;;;;;;;4982540;28;20509;-59
2023/12/12 08:58:41;;;;;;;21.27;10.07;;;;;;;;;;4981955;28;20572;-58
2023/12/12 09:01:16;;;;;;;26.05;11.18;;;;;;;;;;4981119;28;20066;-59
2023/12/12 09:03:44;;;;;;;21.50;10.60;;;;;;;;;;4979244;28;20058;-59
2023/12/12 09:06:12;;;;;;;21.95;11.15;;;;;;;;;;5010888;28;20388;-59
2023/12/12 09:08:46;;;;;;;21.63;10.00;;;;;;;;;;4979394;28;20506;-53
2023/12/12 09:11:13;;;;;;;22.42;9.88;;;;;;;;;;4979996;28;20134;-54
2023/12/12 09:13:44;;;;;;;22.30;11.07;;;;;;;;;;4979803;28;20060;-51
2023/12/12 09:16:18;;;;;;;22.48;10.85;;;;;;;;;;4980226;28;20042;-52
2023/12/12 09:18:45;;;;;;;19.50;10.30;;;;;;;;;;4982686;28;20064;-59
2023/12/12 09:21:19;;;;;;;21.35;10.68;;;;;;;;;;4985748;28;20417;-65
2023/12/12 09:23:47;;;;;;;22.27;10.70;;;;;;;;;;4980941;28;20054;-62
2023/12/12 09:26:14;;;;;;;25.08;9.95;;;;;;;;;;4981716;28;20059;-60
2023/12/12 09:28:48;;;;;;;21.52;10.02;;;;;;;;;;4988455;28;20058;-60
2023/12/12 09:31:24;;;;;;;23.48;10.80;;;;;;;;;;4982633;28;20050;-60
2023/12/12 09:33:58;;;;;;;20.27;9.73;;;;;;;;;;4981019;28;20060;-60
2023/12/12 09:36:25;;;;;;;21.95;10.95;;;;;;;;;;4982066;28;20153;-57
2023/12/12 09:38:52;;;;;;;22.48;11.18;;;;;;;;;;4984535;28;20065;-57
2023/12/12 09:41:26;;;;;;;24.38;11.30;;;;;;;;;;4980580;28;20113;-53
2023/12/12 09:43:53;;;;;;;21.13;11.10;;;;;;;;;;4980711;28;20062;-56
2023/12/12 09:46:21;;;;;;;19.83;10.27;;;;;;;;;;4980160;28;20054;-56
2023/12/12 09:48:56;;;;;;;23.35;11.23;;;;;;;;;;4978989;28;20057;-72
2023/12/12 09:51:24;;;;;;;24.52;11.10;;;;;;;;;;4981371;28;20442;-63
2023/12/12 09:53:52;;;;;;;23.08;11.55;;;;;;;;;;4982752;28;20054;-64
2023/12/12 09:56:32;;;;;;;24.17;11.30;;;;;;;;;;4982528;28;20560;-63
2023/12/12 09:59:00;;;;;;;20.25;10.68;;;;;;;;;;4981421;28;20061;-63
2023/12/12 10:01:34;;;;;;;20.20;10.55;;;;;;;;;;4982414;28;20112;-63
2023/12/12 10:04:04;;;;;;;22.20;11.20;;;;;;;;;;4982037;28;20612;-63
2023/12/12 10:06:35;;;;;;;24.70;11.63;;;;;;;;;;4984818;28;20046;-60
2023/12/12 10:09:09;;;;;;;;;;;;;;;;;;4983261;28;20054;-60
2023/12/12 10:11:37;;;;;;;22.48;10.73;;;;;;;;;;4986119;28;19977;-59
2023/12/12 10:14:04;;;;;;;20.67;10.93;;;;;;;;;;4987436;28;20054;-60
2023/12/12 10:16:38;;;;;;;19.70;9.40;;;;;;;;;;4979578;28;20054;-59
2023/12/12 10:19:13;;;;;;;20.45;10.30;;;;;;;;;;4983385;28;20113;-64
2023/12/12 10:21:40;;;;;;;18.73;9.63;;;;;;;;;;4981022;28;20085;-63
2023/12/12 10:24:07;;;;;;;18.95;9.18;;;;;;;;;;4985616;28;20058;-63
2023/12/12 10:26:49;;;;;;;20.75;9.32;;;;;;;;;;4982545;28;20191;-63
2023/12/12 10:29:20;;;;;;;19.92;10.95;;;;;;;;;;4984527;28;20058;-63
2023/12/12 10:31:54;;;;;;;19.17;7.55;;;;;;;;;;4984558;28;20471;-62
2023/12/12 10:34:23;;;;;;;15.48;8.68;;;;;;;;;;4982662;28;20448;-60
2023/12/12 10:36:51;;;;;;;19.38;10.32;;;;;;;;;;4978863;28;20061;-60
2023/12/12 10:39:30;;;;;;;18.60;9.50;;;;;;;;;;4980957;28;20529;-60
2023/12/12 10:41:58;;;;;;;21.60;9.90;;;;;;;;;;4982834;28;20137;-60
2023/12/12 10:44:33;;;;;;;17.80;8.95;;;;;;;;;;4984011;28;20120;-72
2023/12/12 10:47:00;;;;;;;22.95;10.70;;;;;;;;;;4980890;28;20062;-71
2023/12/12 10:49:33;;;;;;;20.10;9.32;;;;;;;;;;4980349;28;20665;-72
2023/12/12 10:52:08;;;;;;;;;;;;;;;;;;4982790;28;20104;-71
2023/12/12 10:54:39;;;;;;;20.20;10.43;;;;;;;;;;4982864;28;19925;-70
2023/12/12 10:57:07;;;;;;;19.55;10.05;;;;;;;;;;4989618;28;20519;-71
2023/12/12 10:59:42;;;;;;;20.83;9.52;;;;;;;;;;4981220;28;20054;-71
2023/12/12 11:02:29;;;;;;;18.77;7.90;;;;;;;;;;4983704;28;20508;-72
2023/12/12 11:05:13;;;;;;;20.25;10.13;;;;;;;;;;4981099;28;20415;-71
2023/12/12 11:07:42;;;;;;;19.08;10.30;;;;;;;;;;4982173;28;20054;-71
2023/12/12 11:10:18;;;;;;;21.67;10.68;;;;;;;;;;4981996;28;20054;-72
2023/12/12 11:12:49;;;;;;;20.00;9.88;;;;;;;;;;4980796;28;20090;-71
2023/12/12 11:15:24;;;;;;;22.33;9.80;;;;;;;;;;4983228;28;20119;-61
2023/12/12 11:17:52;;;;;;;20.70;9.95;;;;;;;;;;4981204;28;20473;-60
2023/12/12 11:20:21;;;;;;;23.38;11.23;;;;;;;;;;4982639;28;20058;-60
2023/12/12 11:22:55;;;;;;;21.27;9.75;;;;;;;;;;4984026;28;21109;-61
2023/12/12 11:25:22;;;;;;;;;;;;;;;;;;4985744;28;20058;-60
2023/12/12 11:28:03;;;;;;;19.10;8.63;;;;;;;;;;4980224;28;19961;-60
2023/12/12 11:30:34;;;;;;;19.08;9.45;;;;;;;;;;4984196;28;20061;-53
2023/12/12 11:33:08;;;;;;;18.20;9.07;;;;;;;;;;4981718;28;20051;-54
2023/12/12 11:35:36;;;;;;;16.10;8.65;;;;;;;;;;4981440;28;20057;-49
2023/12/12 11:38:28;;;;;;;20.23;9.55;;;;;;;;;;4983213;28;20140;-48
2023/12/12 11:41:12;;;;;;;18.27;9.43;;;;;;;;;;4984439;28;20884;-62
2023/12/12 11:43:46;;;;;;;16.48;8.93;;;;;;;;;;4977925;28;20117;-72
2023/12/12 11:46:24;;;;;;;17.92;9.90;;;;;;;;;;4984351;28;20108;-72
2023/12/12 11:49:17;;;;;;;18.60;9.88;;;;;;;;;;4982213;28;20051;-71
2023/12/12 11:51:46;;;;;;;13.75;8.55;;;;;;;;;;4983347;28;20046;-72
2023/12/12 11:54:21;;;;;;;19.02;8.52;;;;;;;;;;4985342;28;20158;-71
2023/12/12 11:56:49;;;;;;;20.02;9.88;;;;;;;;;;4981014;28;20057;-71
2023/12/12 11:59:23;;;;;;;16.13;8.73;;;;;;;;;;4982219;28;20082;-72
2023/12/12 12:01:57;;;;;;;20.90;9.68;;;;;;;;;;4980699;28;20043;-71
2023/12/12 12:04:24;;;;;;;19.23;9.52;;;;;;;;;;4986332;28;20050;-71
2023/12/12 12:06:58;;;;;;;18.80;9.68;;;;;;;;;;4980775;28;20651;-71
2023/12/12 12:09:25;;;;;;;;;;;;;;;;;;4981881;28;20502;-60
2023/12/12 12:11:53;;;;;;;18.75;8.73;;;;;;;;;;4976817;28;19926;-54
2023/12/12 12:14:27;;;;;;;19.58;9.50;;;;;;;;;;4981955;28;20548;-51
2023/12/12 12:16:58;;;;;;;17.15;8.35;;;;;;;;;;4980500;28;20112;-51
2023/12/12 12:19:33;;;;;;;14.53;8.47;;;;;;;;;;4982570;28;20414;-53
2023/12/12 12:22:08;;;;;;;17.52;9.50;;;;;;;;;;4978618;28;20120;-51
2023/12/12 12:24:42;;;;;;;15.02;8.18;;;;;;;;;;4985351;28;20054;-53
2023/12/12 12:27:17;;;;;;;20.67;8.40;;;;;;;;;;4980419;28;20057;-63
2023/12/12 12:30:02;;;;;;;17.02;7.93;;;;;;;;;;4977046;28;21727;-64
2023/12/12 12:32:36;;;;;;;14.57;7.60;;;;;;;;;;4979429;28;20177;-63
2023/12/12 12:35:07;;;;;;;14.13;7.55;;;;;;;;;;4981604;28;20045;-63
2023/12/12 12:37:35;;;;;;;13.20;7.00;;;;;;;;;;4979845;28;20058;-59
2023/12/12 12:40:10;;;;;;;14.88;7.07;;;;;;;;;;4979496;28;20498;-60
2023/12/12 12:42:44;;;;;;;12.88;7.43;;;;;;;;;;4983569;28;20049;-52
2023/12/12 12:45:18;;;;;;;12.70;6.25;;;;;;;;;;4979274;28;20325;-50
2023/12/12 12:47:52;;;;;;;;;;;;;;;;;;4977863;28;20049;-54
2023/12/12 12:50:26;;;;;;;11.93;6.40;;;;;;;;;;4980911;28;19929;-49
2023/12/12 12:53:01;;;;;;;14.45;7.00;;;;;;;;;;4979135;28;20086;-53
2023/12/12 12:55:35;;;;;;;11.88;5.88;;;;;;;;;;4987745;28;20058;-56
2023/12/12 12:58:02;;;;;;;11.30;5.85;;;;;;;;;;4977039;28;20065;-56
2023/12/12 13:00:56;;;;;;;12.07;5.75;;;;;;;;;;4980977;28;20405;-57
2023/12/12 13:03:44;;;;;;;12.52;6.32;;;;;;;;;;4982134;28;20078;-57
2023/12/12 13:06:41;;;;;;;12.73;7.07;;;;;;;;;;4980611;28;20058;-61
2023/12/12 13:09:29;;;;;;;15.73;6.40;;;;;;;;;;4982076;28;20477;-52
2023/12/12 13:12:23;;;;;;;12.05;5.85;;;;;;;;;;4980225;28;20113;-57
2023/12/12 13:15:09;;;;;;;12.80;6.40;;;;;;;;;;4978516;28;20611;-53
2023/12/12 13:18:03;;;;;;;10.98;6.15;;;;;;;;;;4984082;28;20096;-53
2023/12/12 13:20:50;;;;;;;11.13;5.97;;;;;;;;;;4979696;28;20046;-54
2023/12/12 13:23:44;;;;;;;13.07;7.25;;;;;;;;;;4981319;28;20224;-52
2023/12/12 13:26:38;;;;;;;11.43;6.65;;;;;;;;;;4978908;28;20066;-50
2023/12/12 13:29:38;;;;;;;11.00;6.30;;;;;;;;;;4980615;28;20055;-50
2023/12/12 13:32:26;;;;;;;11.52;6.57;;;;;;;;;;4981141;28;20399;-51
2023/12/12 13:35:21;;;;;;;13.18;7.13;;;;;;;;;;4979832;28;20137;-63
2023/12/12 13:38:07;;;;;;;15.52;6.78;;;;;;;;;;4978954;28;20153;-60
2023/12/12 13:41:02;;;;;;;16.02;7.35;;;;;;;;;;4979635;28;20050;-61
2023/12/12 13:43:49;;;;;;;13.98;6.88;;;;;;;;;;4977227;28;20046;-60
2023/12/12 13:46:42;;;;;;;15.25;7.40;;;;;;;;;;4974335;28;20112;-60
2023/12/12 13:49:36;;;;;;;15.00;7.13;;;;;;;;;;4982902;28;20057;-61
2023/12/12 13:52:23;;;;;;;16.05;7.28;;;;;;;;;;4981707;28;20141;-60
2023/12/12 13:55:17;;;;;;;15.80;6.90;;;;;;;;;;4981449;28;20477;-63
2023/12/12 13:58:06;;;;;;;12.77;6.32;;;;;;;;;;4982655;28;20077;-63
2023/12/12 14:00:58;;;;;;;14.55;6.65;;;;;;;;;;4983603;28;20569;-63
2023/12/12 14:03:45;;;;;;;13.30;6.30;;;;;;;;;;4981621;28;20058;-60
2023/12/12 14:06:39;;;;;;;13.07;6.90;;;;;;;;;;4986549;28;20133;-55
2023/12/12 14:09:27;;;;;;;14.75;6.90;;;;;;;;;;4980523;28;20060;-57
2023/12/12 14:12:21;;;;;;;16.95;7.22;;;;;;;;;;4982710;28;20755;-55
2023/12/12 14:15:08;;;;;;;12.50;6.50;;;;;;;;;;4985313;28;20128;-57
2023/12/12 14:18:02;;;;;;;13.35;7.47;;;;;;;;;;4983712;28;20043;-55
2023/12/12 14:20:49;;;;;;;15.30;6.85;;;;;;;;;;4980281;28;20129;-54
2023/12/12 14:23:43;;;;;;;14.73;7.28;;;;;;;;;;4989121;28;20410;-61
2023/12/12 14:26:31;;;;;;;13.37;7.43;;;;;;;;;;4984510;28;20585;-60
2023/12/12 14:29:32;;;;;;;15.75;7.45;;;;;;;;;;4985225;28;20062;-60
2023/12/12 14:32:19;;;;;;;15.00;7.13;;;;;;;;;;4980870;28;20070;-62
2023/12/12 14:35:13;;;;;;;15.93;7.57;;;;;;;;;;4980307;28;20047;-60
2023/12/12 14:38:00;;;;;;;13.93;7.13;;;;;;;;;;4983685;28;20049;-60
2023/12/12 14:40:54;;;;;;;16.77;7.60;;;;;;;;;;4984545;28;20058;-60
2023/12/12 14:43:45;;;;;;;14.57;7.72;;;;;;;;;;4981778;28;20054;-60
2023/12/12 14:46:38;;;;;;;19.98;7.30;;;;;;;;;;4982177;28;20101;-60
2023/12/12 14:49:25;;;;;;;13.23;6.90;;;;;;;;;;4977020;28;20050;-62
2023/12/12 14:52:19;;;;;;;14.95;7.80;;;;;;;;;;4983255;28;20081;-63
2023/12/12 14:55:07;;;;;;;15.25;7.40;;;;;;;;;;4983952;28;20121;-63
2023/12/12 14:58:00;;;;;;;16.75;7.65;;;;;;;;;;4981786;28;20180;-63
2023/12/12 15:00:47;;;;;;;15.70;7.45;;;;;;;;;;4979617;28;20061;-57
2023/12/12 15:03:41;;;;;;;16.77;7.45;;;;;;;;;;4981472;28;20055;-57
2023/12/12 15:06:29;;;;;;;13.90;7.18;;;;;;;;;;4975934;28;20411;-57
2023/12/12 15:09:23;;;;;;;14.50;7.13;;;;;;;;;;4979439;28;20878;-59
2023/12/12 15:12:10;;;;;;;13.95;7.25;;;;;;;;;;4978380;28;20050;-59
2023/12/12 15:15:06;;;;;;;15.98;7.20;;;;;;;;;;4979411;28;20100;-58
2023/12/12 15:17:52;;;;;;;15.88;7.85;;;;;;;;;;4980247;28;20054;-61
2023/12/12 15:20:45;;;;;;;13.00;7.22;;;;;;;;;;4983751;28;20145;-61